Bertrange, Luxembourg
Current Conditions -  °F | °C
As of 3:20 PM on Thursday 30 Oct 2014 (Local Time) from ELLX Reporting Station
Broken Clouds Broken Clouds  
Wind Chill: 55°   Ceiling: 600
Heat Index: 55°   Visibility: 2.8mi
Dew Point: 54°   Wind: 2mph
Humidity: 94%   Direction: NA
Pressure: 30.24"   Gusts: NA
Location:  49.61°N, 6.05°E
Report Text: ELLX 301420Z VRB02KT 4500 BKN006 13/12 Q1024 BECMG 5000
Loading
Personal Weather Stations






























Interactive Weather Map
Tropical Storm Tracking
New forecast layout! Learn more

10-Day Weather Forecast

Advertisements
Track Severe Weather on mobile